Time;durP1;ratioP1;P1;durP2;ratioP2;P2;SDS_P1;SDS_P2;PMS_P1;PMS_P2;Temp;Humidity;BMP_temperature;BMP_pressure;BME280_temperature;BME280_humidity;BME280_pressure;Samples;Min_cycle;Max_cycle;Signal;HPM_P1;HPM_P2
2022/10/28 00:01:19;;;;;;;28.43;12.33;;;14.80;99.90;;;;;;5071465;28;20478;-62
2022/10/28 00:03:48;;;;;;;26.53;11.33;;;14.80;99.90;;;;;;5067709;28;20987;-62
2022/10/28 00:06:17;;;;;;;38.77;14.30;;;14.80;99.90;;;;;;5044450;28;21163;-62
2022/10/28 00:08:45;;;;;;;34.43;10.90;;;14.70;99.90;;;;;;5063707;28;20514;-62
2022/10/28 00:11:17;;;;;;;27.23;10.23;;;14.70;99.90;;;;;;5078238;28;20475;-62
2022/10/28 00:13:45;;;;;;;23.47;10.93;;;14.70;99.90;;;;;;5067136;28;20488;-62
2022/10/28 00:16:14;;;;;;;26.97;13.10;;;;;;;;;;5071284;28;21135;-62
2022/10/28 00:18:41;;;;;;;24.27;9.57;;;14.70;99.90;;;;;;5065649;28;20482;-63
2022/10/28 00:21:10;;;;;;;28.57;13.30;;;14.80;99.90;;;;;;5065693;28;20902;-62
2022/10/28 00:23:37;;;;;;;20.00;10.50;;;14.80;99.90;;;;;;5063650;28;20470;-62
2022/10/28 00:26:07;;;;;;;36.10;10.97;;;14.70;99.90;;;;;;5073945;28;20835;-62
2022/10/28 00:28:34;;;;;;;21.13;9.93;;;14.70;99.90;;;;;;5067183;28;20878;-62
2022/10/28 00:31:06;;;;;;;22.10;9.90;;;14.80;99.90;;;;;;5069297;28;20982;-62
2022/10/28 00:33:33;;;;;;;24.43;10.50;;;14.80;99.90;;;;;;5073349;28;20481;-62
2022/10/28 00:36:11;;;;;;;35.00;10.90;;;11.50;99.90;;;;;;5070975;28;20833;-63
2022/10/28 00:38:38;;;;;;;41.57;11.10;;;14.70;99.90;;;;;;5071854;28;20527;-63
2022/10/28 00:41:07;;;;;;;28.50;10.10;;;14.50;99.90;;;;;;5073372;28;20466;-63
2022/10/28 00:43:39;;;;;;;64.00;14.07;;;14.50;99.90;;;;;;5071925;28;20497;-63
2022/10/28 00:46:16;;;;;;;36.67;13.17;;;14.50;99.90;;;;;;5071413;28;20517;-63
2022/10/28 00:48:45;;;;;;;52.33;15.50;;;14.50;99.90;;;;;;5069291;28;20482;-63
2022/10/28 00:51:13;;;;;;;58.60;18.23;;;14.50;99.90;;;;;;5072318;28;20959;-63
2022/10/28 00:53:41;;;;;;;44.17;14.40;;;;;;;;;;5073950;28;20997;-62
2022/10/28 00:56:10;;;;;;;41.87;16.67;;;14.50;99.90;;;;;;5073744;28;20475;-63
2022/10/28 00:58:37;;;;;;;40.83;14.30;;;10.90;99.90;;;;;;5073047;28;20842;-63
2022/10/28 01:01:04;;;;;;;41.37;11.87;;;14.50;99.90;;;;;;5075143;28;20485;-63
2022/10/28 01:03:31;;;;;;;33.57;13.33;;;;;;;;;;5054012;28;20985;-63
2022/10/28 01:05:59;;;;;;;21.23;9.83;;;14.60;99.90;;;;;;5068576;28;21045;-63
2022/10/28 01:08:26;;;;;;;23.73;12.40;;;14.70;99.90;;;;;;5079840;28;20831;-62
2022/10/28 01:11:11;;;;;;;27.10;11.37;;;14.80;99.90;;;;;;5080373;28;21052;-63
2022/10/28 01:13:47;;;;;;;38.30;14.57;;;14.80;99.90;;;;;;5070182;28;20803;-63
2022/10/28 01:16:25;;;;;;;60.93;16.37;;;14.90;99.90;;;;;;5064624;28;21156;-63
2022/10/28 01:19:02;;;;;;;35.47;12.33;;;14.90;99.90;;;;;;5061990;28;20474;-62
2022/10/28 01:25:14;;;;;;;39.53;12.03;;;15.00;99.90;;;;;;5071282;28;20580;-62
2022/10/28 01:28:08;;;;;;;46.20;12.23;;;14.80;99.90;;;;;;5074754;28;20471;-62
2022/10/28 01:30:54;;;;;;;31.43;12.03;;;14.80;99.90;;;;;;5061120;28;21065;-63
2022/10/28 01:33:26;;;;;;;40.43;13.70;;;14.90;99.90;;;;;;5073345;28;20508;-62
2022/10/28 01:35:57;;;;;;;30.73;10.50;;;14.80;99.90;;;;;;5076095;28;20470;-61
2022/10/28 01:38:32;;;;;;;36.73;11.60;;;14.80;99.90;;;;;;5071886;28;20470;-62
2022/10/28 01:41:09;;;;;;;37.30;12.70;;;14.50;99.90;;;;;;5075715;28;20473;-62
2022/10/28 01:43:45;;;;;;;30.17;10.80;;;14.30;99.90;;;;;;5075333;28;20474;-62
2022/10/28 01:46:19;;;;;;;47.13;14.40;;;14.30;99.90;;;;;;5075750;28;20489;-62
2022/10/28 01:48:50;;;;;;;40.20;14.20;;;14.40;99.90;;;;;;5073790;28;20864;-62
2022/10/28 01:51:26;;;;;;;50.13;15.83;;;14.50;99.90;;;;;;5075708;28;20898;-61
2022/10/28 01:53:56;;;;;;;33.10;9.97;;;14.50;99.90;;;;;;5074146;28;20465;-62
2022/10/28 01:56:27;;;;;;;24.73;10.87;;;14.60;99.90;;;;;;5074131;28;20505;-62
2022/10/28 01:58:58;;;;;;;20.93;9.83;;;14.50;99.90;;;;;;5074058;28;20473;-62
2022/10/28 02:01:28;;;;;;;44.93;12.90;;;;;;;;;;5074881;28;20481;-62
2022/10/28 02:03:56;;;;;;;18.43;9.77;;;14.50;99.90;;;;;;5070379;28;20485;-61
2022/10/28 02:06:27;;;;;;;27.53;13.90;;;14.50;99.90;;;;;;5078787;28;20474;-62
2022/10/28 02:09:04;;;;;;;25.93;10.33;;;14.60;99.90;;;;;;5074949;28;20782;-62
2022/10/28 02:11:49;;;;;;;18.77;10.50;;;14.60;99.90;;;;;;5075583;28;20494;-62
2022/10/28 02:14:31;;;;;;;41.37;16.03;;;14.70;99.90;;;;;;5068658;28;20494;-63
2022/10/28 02:17:06;;;;;;;29.97;10.57;;;14.70;99.90;;;;;;5068913;28;20478;-62
2022/10/28 02:19:43;;;;;;;24.37;11.13;;;14.70;99.90;;;;;;5062876;28;20974;-62
2022/10/28 02:22:19;;;;;;;45.53;15.33;;;14.60;99.90;;;;;;5074962;28;20470;-62
2022/10/28 02:24:54;;;;;;;35.83;11.90;;;14.60;99.90;;;;;;5075404;28;20871;-61
2022/10/28 02:27:29;;;;;;;44.87;16.23;;;14.50;99.90;;;;;;5071203;28;20478;-63
2022/10/28 02:30:01;;;;;;;36.37;11.20;;;14.40;99.90;;;;;;5070979;28;20470;-61
2022/10/28 02:32:37;;;;;;;26.07;11.77;;;14.40;99.90;;;;;;5074661;28;20474;-62
2022/10/28 02:35:12;;;;;;;31.23;11.23;;;14.60;99.90;;;;;;5072217;28;20519;-62
2022/10/28 02:37:41;;;;;;;25.50;12.90;;;14.60;99.90;;;;;;5072570;28;20485;-61
2022/10/28 02:40:11;;;;;;;50.50;14.67;;;;;;;;;;5074594;28;20943;-62
2022/10/28 02:42:41;;;;;;;21.80;12.03;;;14.60;99.90;;;;;;5071470;28;20478;-62
2022/10/28 02:45:12;;;;;;;42.63;16.53;;;14.60;99.90;;;;;;5063040;28;20474;-63
2022/10/28 02:47:45;;;;;;;32.80;13.07;;;14.60;99.90;;;;;;5059839;28;20474;-62
2022/10/28 02:50:16;;;;;;;46.77;19.67;;;14.60;99.90;;;;;;5063580;28;20482;-61
2022/10/28 02:52:48;;;;;;;28.20;13.40;;;14.50;99.90;;;;;;5070927;28;20509;-62
2022/10/28 02:55:15;;;;;;;33.33;16.30;;;14.50;99.90;;;;;;5074308;28;20482;-62
2022/10/28 02:57:47;;;;;;;34.23;14.80;;;14.70;99.90;;;;;;5070570;28;20475;-62
2022/10/28 03:00:16;;;;;;;77.70;17.33;;;;;;;;;;5067297;28;20489;-62
2022/10/28 03:02:44;;;;;;;32.93;12.23;;;14.90;99.90;;;;;;5071971;28;20918;-62
2022/10/28 03:05:11;;;;;;;39.53;16.90;;;14.90;99.90;;;;;;5070690;28;20482;-61
2022/10/28 03:07:38;;;;;;;48.13;14.10;;;15.00;99.90;;;;;;5069647;28;20832;-62
2022/10/28 03:10:05;;;;;;;36.07;13.00;;;14.90;99.90;;;;;;5073139;28;20479;-61
2022/10/28 03:12:32;;;;;;;23.60;10.50;;;;;;;;;;5074505;28;21156;-61
2022/10/28 03:14:59;;;;;;;44.17;12.10;;;14.90;99.90;;;;;;5070579;28;20854;-63
2022/10/28 03:17:25;;;;;;;22.90;11.67;;;14.80;99.90;;;;;;5064212;28;20473;-62
2022/10/28 03:19:53;;;;;;;36.60;12.17;;;14.80;99.90;;;;;;5082784;28;20842;-62
2022/10/28 03:22:20;;;;;;;51.53;16.30;;;14.70;99.90;;;;;;5073997;28;20475;-61
2022/10/28 03:24:47;;;;;;;24.30;11.80;;;14.70;99.90;;;;;;5074100;28;20474;-62
2022/10/28 03:27:14;;;;;;;35.13;15.90;;;14.70;99.90;;;;;;5069889;28;20478;-61
2022/10/28 03:29:40;;;;;;;52.70;14.57;;;14.60;99.90;;;;;;5071513;28;20493;-63
2022/10/28 03:32:07;;;;;;;42.37;14.77;;;14.60;99.90;;;;;;5071808;28;20502;-63
2022/10/28 03:34:34;;;;;;;21.83;10.90;;;13.00;99.90;;;;;;5074728;28;20490;-62
2022/10/28 03:37:02;;;;;;;20.90;11.90;;;14.40;99.90;;;;;;5075049;28;20486;-61
2022/10/28 03:39:28;;;;;;;22.90;12.07;;;14.40;99.90;;;;;;5075685;28;20474;-63
2022/10/28 03:41:56;;;;;;;35.87;12.40;;;;;;;;;;5075964;28;20859;-62
2022/10/28 03:44:22;;;;;;;56.57;15.77;;;14.30;99.90;;;;;;5074100;28;20518;-61
2022/10/28 03:46:49;;;;;;;48.30;14.40;;;14.30;99.90;;;;;;5073676;28;21017;-61
2022/10/28 03:49:16;;;;;;;62.47;18.60;;;14.10;99.90;;;;;;5073459;28;20482;-62
2022/10/28 03:51:42;;;;;;;33.70;12.60;;;14.10;99.90;;;;;;5075359;28;20955;-62
2022/10/28 03:54:10;;;;;;;39.30;15.87;;;14.10;99.90;;;;;;5068860;28;20470;-63
2022/10/28 03:56:39;;;;;;;41.10;15.43;;;14.20;99.90;;;;;;5069874;28;20958;-62
2022/10/28 03:59:06;;;;;;;34.83;12.63;;;14.20;99.90;;;;;;5070057;28;20478;-61
2022/10/28 04:01:32;;;;;;;43.73;13.27;;;14.20;99.90;;;;;;5071175;28;20486;-62
2022/10/28 04:03:59;;;;;;;31.10;12.43;;;14.00;99.90;;;;;;5072909;28;20990;-62
2022/10/28 04:06:26;;;;;;;40.00;12.60;;;14.10;99.90;;;;;;5071056;28;20478;-62
2022/10/28 04:08:53;;;;;;;35.37;12.73;;;;;;;;;;5077056;28;20885;-62
2022/10/28 04:11:21;;;;;;;30.37;15.00;;;14.10;99.90;;;;;;5076033;28;20986;-62
2022/10/28 04:13:48;;;;;;;22.93;11.00;;;14.10;99.90;;;;;;5073485;28;20485;-61
2022/10/28 04:16:14;;;;;;;33.63;16.07;;;14.10;99.90;;;;;;5080554;28;20493;-62
2022/10/28 04:18:41;;;;;;;23.47;12.27;;;14.20;99.90;;;;;;5075018;28;21001;-62
2022/10/28 04:21:08;;;;;;;52.87;14.60;;;14.30;99.90;;;;;;5075893;28;20513;-62
2022/10/28 04:23:35;;;;;;;13.40;9.50;;;;;;;;;;5077787;28;20478;-62
2022/10/28 04:26:01;;;;;;;31.87;12.23;;;14.50;99.90;;;;;;5078071;28;20477;-61
2022/10/28 04:28:29;;;;;;;44.77;12.30;;;14.50;99.90;;;;;;5073612;28;20475;-61
2022/10/28 04:30:56;;;;;;;31.03;12.27;;;14.50;99.90;;;;;;5072465;28;20723;-62
2022/10/28 04:33:23;;;;;;;24.23;13.67;;;14.40;99.90;;;;;;5059378;28;21004;-61
2022/10/28 04:35:50;;;;;;;36.13;12.77;;;14.30;99.90;;;;;;5087658;28;20486;-62
2022/10/28 04:38:16;;;;;;;34.17;15.23;;;14.30;99.90;;;;;;5075030;28;20778;-61
2022/10/28 04:40:43;;;;;;;29.40;11.67;;;;;;;;;;5077258;28;20485;-62
2022/10/28 04:43:10;;;;;;;39.67;10.67;;;14.40;99.90;;;;;;5073144;28;20482;-62
2022/10/28 04:45:38;;;;;;;17.00;10.70;;;14.50;99.90;;;;;;5074406;28;20584;-62
2022/10/28 04:48:05;;;;;;;25.67;11.00;;;14.50;99.90;;;;;;5075343;28;20558;-63
2022/10/28 04:50:32;;;;;;;69.83;23.93;;;14.60;99.90;;;;;;5075599;28;20657;-62
2022/10/28 04:52:59;;;;;;;40.33;13.67;;;;;;;;;;5075715;28;20802;-62
2022/10/28 04:55:26;;;;;;;32.47;13.67;;;14.50;99.90;;;;;;5072786;28;20489;-62
2022/10/28 04:57:54;;;;;;;55.00;14.27;;;14.50;99.90;;;;;;5074621;28;20474;-62
2022/10/28 05:00:21;;;;;;;31.93;16.87;;;14.50;99.90;;;;;;5065594;28;20498;-62
2022/10/28 05:02:49;;;;;;;30.57;14.90;;;14.50;99.90;;;;;;5076369;28;20482;-62
2022/10/28 05:05:17;;;;;;;33.53;14.10;;;14.60;99.90;;;;;;5069866;28;21135;-63
2022/10/28 05:07:44;;;;;;;25.73;11.57;;;14.60;99.90;;;;;;5078179;28;20493;-62
2022/10/28 05:10:14;;;;;;;61.00;16.77;;;;;;;;;;5075714;28;20489;-63
2022/10/28 05:12:41;;;;;;;39.17;11.57;;;14.60;99.90;;;;;;5073278;28;20522;-62
2022/10/28 05:15:09;;;;;;;31.07;15.07;;;;;;;;;;5074472;28;20482;-63
2022/10/28 05:17:36;;;;;;;29.57;12.43;;;;;;;;;;5076438;28;20474;-62
2022/10/28 05:20:06;;;;;;;22.20;10.40;;;14.60;99.90;;;;;;5075636;28;20923;-62
2022/10/28 05:22:34;;;;;;;22.93;10.87;;;;;;;;;;5060426;28;20485;-63
2022/10/28 05:25:00;;;;;;;21.03;10.73;;;14.60;99.90;;;;;;5070967;28;21020;-62
2022/10/28 05:27:27;;;;;;;14.37;9.90;;;14.60;99.90;;;;;;5073519;28;20667;-63
2022/10/28 05:29:54;;;;;;;19.00;10.73;;;14.50;99.90;;;;;;5073716;28;20509;-62
2022/10/28 05:32:20;;;;;;;28.27;14.00;;;14.40;99.90;;;;;;5073359;28;20478;-62
2022/10/28 05:34:47;;;;;;;31.63;12.30;;;14.40;99.90;;;;;;5067004;28;20479;-63
2022/10/28 05:37:15;;;;;;;43.53;14.20;;;14.40;99.90;;;;;;5073133;28;20902;-62
2022/10/28 05:39:42;;;;;;;49.13;12.30;;;14.50;99.90;;;;;;5079605;28;20489;-62
2022/10/28 05:42:08;;;;;;;31.00;13.07;;;14.50;99.90;;;;;;5073508;28;20475;-62
2022/10/28 05:44:35;;;;;;;19.67;12.57;;;14.40;99.90;;;;;;5076123;28;20494;-62
2022/10/28 05:47:02;;;;;;;28.33;10.93;;;14.40;99.90;;;;;;5075707;28;20486;-62
2022/10/28 05:49:29;;;;;;;29.13;10.67;;;14.30;99.90;;;;;;5072170;28;20678;-62
2022/10/28 05:51:55;;;;;;;45.53;11.87;;;14.40;99.90;;;;;;5074797;28;20478;-62
2022/10/28 05:54:24;;;;;;;47.93;15.23;;;;;;;;;;5075151;28;20482;-62
2022/10/28 05:56:50;;;;;;;25.53;10.63;;;14.50;99.90;;;;;;5071070;28;20485;-62
2022/10/28 05:59:17;;;;;;;26.50;16.53;;;14.40;99.90;;;;;;5072694;28;20986;-63
2022/10/28 06:01:44;;;;;;;30.23;14.20;;;14.40;99.90;;;;;;5071421;28;20663;-63
2022/10/28 06:04:11;;;;;;;40.33;14.73;;;;;;;;;;5075052;28;20821;-63
2022/10/28 06:06:37;;;;;;;42.67;16.27;;;14.40;99.90;;;;;;5084668;28;21085;-63
2022/10/28 06:09:05;;;;;;;37.13;12.30;;;14.40;99.90;;;;;;5069537;28;20761;-62
2022/10/28 06:11:34;;;;;;;38.40;14.20;;;14.40;99.90;;;;;;5086884;28;20473;-62
2022/10/28 06:14:01;;;;;;;27.13;11.80;;;14.30;99.90;;;;;;5072325;28;20915;-62
2022/10/28 06:16:29;;;;;;;39.63;14.53;;;;;;;;;;5070182;28;20482;-63
2022/10/28 06:18:56;;;;;;;33.53;11.70;;;;;;;;;;5073395;28;20517;-62
2022/10/28 06:21:22;;;;;;;31.83;14.00;;;14.10;99.90;;;;;;5074906;28;20485;-62
2022/10/28 06:23:50;;;;;;;34.37;11.43;;;;;;;;;;5069875;28;20488;-62
2022/10/28 06:26:17;;;;;;;56.77;15.40;;;14.10;99.90;;;;;;5071522;28;20992;-63
2022/10/28 06:28:47;;;;;;;27.17;10.40;;;14.20;99.90;;;;;;5069901;28;20474;-63
2022/10/28 06:31:13;;;;;;;58.37;17.60;;;14.10;99.90;;;;;;5071652;28;20474;-63
2022/10/28 06:33:40;;;;;;;43.47;13.37;;;14.20;99.90;;;;;;5071846;28;20486;-63
2022/10/28 06:36:07;;;;;;;47.43;15.50;;;14.10;99.90;;;;;;5074735;28;20508;-63
2022/10/28 06:38:34;;;;;;;40.03;12.93;;;14.20;99.90;;;;;;5070779;28;20883;-63
2022/10/28 06:41:01;;;;;;;37.80;14.20;;;;;;;;;;5064057;28;20490;-63
2022/10/28 06:43:28;;;;;;;30.20;14.30;;;;;;;;;;5072350;28;20478;-62
2022/10/28 06:46:00;;;;;;;37.33;13.07;;;14.40;99.90;;;;;;5068891;28;20482;-62
2022/10/28 06:48:27;;;;;;;54.83;15.47;;;14.50;99.90;;;;;;5055293;28;20680;-63
2022/10/28 06:50:55;;;;;;;32.70;12.60;;;14.50;99.90;;;;;;5067334;28;20827;-63
2022/10/28 06:53:21;;;;;;;50.30;16.30;;;14.60;99.90;;;;;;5080005;28;20490;-63
2022/10/28 06:55:52;;;;;;;50.57;16.20;;;14.60;99.90;;;;;;5072199;28;20483;-63
2022/10/28 06:58:19;;;;;;;39.17;17.13;;;17.20;99.90;;;;;;5070634;28;20499;-63
2022/10/28 07:00:46;;;;;;;51.57;15.47;;;;;;;;;;5073240;28;20478;-63
2022/10/28 07:03:14;;;;;;;81.80;19.57;;;14.80;99.90;;;;;;5073468;28;20474;-62
2022/10/28 07:05:41;;;;;;;41.83;13.70;;;14.80;99.90;;;;;;5069963;28;20478;-62
2022/10/28 07:08:08;;;;;;;59.07;17.07;;;;;;;;;;5067453;28;20475;-62
2022/10/28 07:10:35;;;;;;;34.87;10.70;;;14.90;99.90;;;;;;5073112;28;20483;-62
2022/10/28 07:13:02;;;;;;;23.03;10.20;;;;;;;;;;5072769;28;20474;-62
2022/10/28 07:15:29;;;;;;;31.00;11.23;;;;;;;;;;5074090;28;20489;-62
2022/10/28 07:17:57;;;;;;;28.20;11.37;;;14.80;99.90;;;;;;5071749;28;20482;-63
2022/10/28 07:20:28;;;;;;;35.67;12.77;;;15.00;99.90;;;;;;5077350;28;20485;-62
2022/10/28 07:22:58;;;;;;;31.17;10.57;;;15.10;99.90;;;;;;5072644;28;21073;-62
2022/10/28 07:25:25;;;;;;;33.80;11.73;;;15.10;99.90;;;;;;5073954;28;21406;-62
2022/10/28 07:27:52;;;;;;;22.77;10.97;;;;;;;;;;5071984;28;20486;-63
2022/10/28 07:30:19;;;;;;;48.43;16.00;;;;;;;;;;5071355;28;20478;-63
2022/10/28 07:32:46;;;;;;;58.10;21.97;;;;;;;;;;5057350;28;20493;-63
2022/10/28 07:35:13;;;;;;;46.80;14.20;;;;;;;;;;5067960;28;20493;-62
2022/10/28 07:37:41;;;;;;;33.17;12.10;;;16.90;99.90;;;;;;5061221;28;20487;-63
2022/10/28 07:40:09;;;;;;;42.17;15.30;;;15.80;99.90;;;;;;5063883;28;21068;-63
2022/10/28 07:42:36;;;;;;;46.70;13.33;;;15.80;99.90;;;;;;5068799;28;20478;-62
2022/10/28 07:45:03;;;;;;;33.23;12.97;;;15.90;99.90;;;;;;5065149;28;20533;-62
2022/10/28 07:47:30;;;;;;;42.43;13.67;;;15.90;99.90;;;;;;5065271;28;20478;-61
2022/10/28 07:49:56;;;;;;;35.13;13.70;;;16.00;99.90;;;;;;5070883;28;20485;-63
2022/10/28 07:52:23;;;;;;;43.90;14.80;;;16.00;99.90;;;;;;5064664;28;20470;-63
2022/10/28 07:54:52;;;;;;;42.27;12.03;;;;;;;;;;5066366;28;21904;-62
2022/10/28 07:57:19;;;;;;;45.83;15.93;;;16.20;99.90;;;;;;5068843;28;20486;-64
2022/10/28 07:59:45;;;;;;;22.53;10.70;;;16.20;99.90;;;;;;5070171;28;20821;-63
2022/10/28 08:02:16;;;;;;;38.00;17.40;;;16.30;99.90;;;;;;5069016;28;20713;-62
2022/10/28 08:04:43;;;;;;;35.00;12.40;;;16.40;99.90;;;;;;5066825;28;20898;-63
2022/10/28 08:07:09;;;;;;;35.30;15.07;;;16.50;99.90;;;;;;5066773;28;20477;-62
2022/10/28 08:09:36;;;;;;;34.73;13.47;;;16.60;99.90;;;;;;5070240;28;20482;-62
2022/10/28 08:12:05;;;;;;;25.13;12.90;;;16.60;99.90;;;;;;5072748;28;20852;-61
2022/10/28 08:14:32;;;;;;;43.00;14.40;;;16.80;99.90;;;;;;5068829;28;20474;-62
2022/10/28 08:16:58;;;;;;;28.93;13.47;;;17.00;99.90;;;;;;5067567;28;20466;-63
2022/10/28 08:19:25;;;;;;;59.27;15.90;;;17.10;99.90;;;;;;5069120;28;20483;-62
2022/10/28 08:21:52;;;;;;;43.20;14.30;;;17.40;99.90;;;;;;5069340;28;20474;-62
2022/10/28 08:24:19;;;;;;;48.73;16.87;;;17.50;99.90;;;;;;5057377;28;20474;-62
2022/10/28 08:26:46;;;;;;;38.20;14.23;;;;;;;;;;5066627;28;21317;-62
2022/10/28 08:29:14;;;;;;;57.70;18.63;;;;;;;;;;5059932;28;21011;-62
2022/10/28 08:31:41;;;;;;;43.50;15.77;;;17.70;99.90;;;;;;5060909;28;21030;-61
2022/10/28 08:34:08;;;;;;;40.20;13.73;;;;;;;;;;5060741;28;20474;-61
2022/10/28 08:36:35;;;;;;;41.73;15.27;;;;;;;;;;5055513;28;20483;-62
2022/10/28 08:39:02;;;;;;;30.07;14.03;;;17.90;99.90;;;;;;5063559;28;20520;-61
2022/10/28 08:41:35;;;;;;;29.93;12.90;;;18.00;99.90;;;;;;5076035;28;20474;-62
2022/10/28 08:44:40;;;;;;;35.10;12.77;;;18.10;99.90;;;;;;5063986;28;20591;-62
2022/10/28 08:47:16;;;;;;;34.37;13.27;;;18.40;99.90;;;;;;5059956;28;20625;-62
2022/10/28 08:49:44;;;;;;;23.50;11.97;;;;;;;;;;5073044;28;20743;-61
2022/10/28 08:52:15;;;;;;;44.70;13.10;;;;;;;;;;5058578;28;20478;-62
2022/10/28 08:54:46;;;;;;;24.03;12.00;;;19.50;99.90;;;;;;5067185;28;20811;-63
2022/10/28 08:57:16;;;;;;;36.87;13.27;;;19.80;99.90;;;;;;5068212;28;20970;-62
2022/10/28 08:59:45;;;;;;;28.63;9.93;;;20.00;99.90;;;;;;5073120;28;20477;-63
2022/10/28 09:02:18;;;;;;;33.67;15.57;;;;;;;;;;5072080;28;20474;-62
2022/10/28 09:04:46;;;;;;;32.47;9.80;;;;;;;;;;5073010;28;20471;-63
2022/10/28 09:07:18;;;;;;;37.33;14.30;;;20.20;99.90;;;;;;5069858;28;20483;-63
2022/10/28 09:09:45;;;;;;;32.67;11.77;;;20.20;99.90;;;;;;5069526;28;20477;-63
2022/10/28 09:12:23;;;;;;;50.47;15.83;;;20.20;99.90;;;;;;5072508;28;20827;-62
2022/10/28 09:15:06;;;;;;;49.07;12.37;;;20.30;99.90;;;;;;5063493;28;20479;-62
2022/10/28 09:17:41;;;;;;;34.90;12.27;;;20.50;99.90;;;;;;5067810;28;21061;-63
2022/10/28 09:20:17;;;;;;;31.33;11.40;;;20.60;99.90;;;;;;5055668;28;20492;-63
2022/10/28 09:22:50;;;;;;;32.60;11.90;;;;;;;;;;5056210;28;20486;-64
2022/10/28 09:25:23;;;;;;;44.37;15.80;;;21.10;99.90;;;;;;5065847;28;20929;-63
2022/10/28 09:28:05;;;;;;;42.10;11.60;;;21.30;99.90;;;;;;5066532;28;20486;-64
2022/10/28 09:30:47;;;;;;;22.80;10.40;;;21.60;99.90;;;;;;5070856;28;20474;-63
2022/10/28 09:33:25;;;;;;;34.57;13.27;;;21.80;99.90;;;;;;5071050;28;20481;-63
2022/10/28 09:35:52;;;;;;;25.80;8.50;;;22.10;99.90;;;;;;5061223;28;20465;-64
2022/10/28 09:38:27;;;;;;;24.83;9.77;;;22.30;99.90;;;;;;5067481;28;21248;-63
2022/10/28 09:40:59;;;;;;;29.53;8.90;;;22.50;99.90;;;;;;5072254;28;21195;-63
2022/10/28 09:43:29;;;;;;;37.97;8.27;;;22.60;99.90;;;;;;5070090;28;20483;-63
2022/10/28 09:46:00;;;;;;;26.80;8.77;;;;;;;;;;5072457;28;20832;-64
2022/10/28 09:48:30;;;;;;;19.93;7.70;;;22.70;99.90;;;;;;5070084;28;20470;-64
2022/10/28 09:50:58;;;;;;;29.67;7.07;;;;;;;;;;5071233;28;20487;-64
2022/10/28 09:53:29;;;;;;;22.93;8.80;;;;;;;;;;5070115;28;20840;-64
2022/10/28 09:55:56;;;;;;;23.20;7.87;;;22.80;99.90;;;;;;5066797;28;21093;-63
2022/10/28 09:58:23;;;;;;;34.87;10.60;;;22.90;99.90;;;;;;5066462;28;20498;-63
2022/10/28 10:00:50;;;;;;;32.80;8.23;;;23.10;99.90;;;;;;5066164;28;20482;-63
2022/10/28 10:03:18;;;;;;;28.23;11.73;;;;;;;;;;5070963;28;20951;-64
2022/10/28 10:05:48;;;;;;;25.00;8.33;;;23.50;99.90;;;;;;5068756;28;20486;-64
2022/10/28 10:08:17;;;;;;;18.90;10.20;;;;;;;;;;5062174;28;20453;-64
2022/10/28 10:10:49;;;;;;;35.30;8.77;;;24.00;99.90;;;;;;5070134;28;20489;-63
2022/10/28 10:13:18;;;;;;;34.63;12.77;;;24.30;99.90;;;;;;5070039;28;21165;-63
2022/10/28 10:15:48;;;;;;;31.70;9.37;;;24.50;99.90;;;;;;5069567;28;20462;-64
2022/10/28 10:18:21;;;;;;;60.03;15.77;;;24.60;99.90;;;;;;5069385;28;21094;-64
2022/10/28 10:20:50;;;;;;;37.10;10.27;;;23.10;99.30;;;;;;5072074;28;20445;-64
2022/10/28 10:23:28;;;;;;;31.23;10.70;;;24.90;98.70;;;;;;5070324;28;20471;-64
2022/10/28 10:25:57;;;;;;;42.40;9.83;;;25.00;99.20;;;;;;5071716;28;20491;-64
2022/10/28 10:28:26;;;;;;;23.87;10.97;;;25.30;98.50;;;;;;5069349;28;20467;-64
2022/10/28 10:30:54;;;;;;;21.03;7.63;;;25.40;99.20;;;;;;5070730;28;20815;-64
2022/10/28 10:33:27;;;;;;;53.90;14.53;;;25.60;98.70;;;;;;5069122;28;20479;-64
2022/10/28 10:35:57;;;;;;;26.30;9.43;;;25.70;97.80;;;;;;5060306;28;20470;-64
2022/10/28 10:38:24;;;;;;;39.40;12.67;;;25.50;95.00;;;;;;5064321;28;20456;-64
2022/10/28 10:40:52;;;;;;;33.47;10.60;;;25.40;95.90;;;;;;5066078;28;20471;-64
2022/10/28 10:43:29;;;;;;;49.37;13.03;;;25.30;96.10;;;;;;5044699;28;20450;-65
2022/10/28 10:46:02;;;;;;;15.63;7.00;;;25.30;93.70;;;;;;5064320;28;20462;-64
2022/10/28 10:48:31;;;;;;;23.60;8.50;;;25.30;94.50;;;;;;5057075;28;20870;-64
2022/10/28 10:51:04;;;;;;;38.63;9.00;;;25.20;94.40;;;;;;5059995;28;20444;-64
2022/10/28 10:53:32;;;;;;;25.40;8.87;;;24.90;92.00;;;;;;5057275;28;20462;-64
2022/10/28 10:56:02;;;;;;;32.43;7.47;;;24.90;93.70;;;;;;5068891;28;20455;-65
2022/10/28 10:58:32;;;;;;;23.90;8.70;;;24.80;92.80;;;;;;5060470;28;20839;-65
2022/10/28 11:01:02;;;;;;;30.53;11.30;;;24.70;93.30;;;;;;5063249;28;20957;-64
2022/10/28 11:03:33;;;;;;;35.53;9.73;;;24.60;92.40;;;;;;5070409;28;20464;-66
2022/10/28 11:06:01;;;;;;;24.90;7.77;;;;;;;;;;5060890;28;20458;-65
2022/10/28 11:08:35;;;;;;;22.17;8.40;;;24.60;92.90;;;;;;5057185;28;20494;-64
2022/10/28 11:11:12;;;;;;;12.80;6.30;;;24.70;92.80;;;;;;5068862;28;20458;-65
2022/10/28 11:13:40;;;;;;;19.53;9.73;;;24.80;93.00;;;;;;5059968;28;20780;-64
2022/10/28 11:16:16;;;;;;;20.63;8.83;;;24.60;91.70;;;;;;5080581;28;20461;-65
2022/10/28 11:18:46;;;;;;;21.00;9.97;;;24.80;91.80;;;;;;5065146;28;21173;-65
2022/10/28 11:21:50;;;;;;;17.23;7.90;;;24.80;91.70;;;;;;5061246;28;20989;-65
2022/10/28 11:24:38;;;;;;;30.03;7.03;;;24.80;91.70;;;;;;5069106;28;20903;-65
2022/10/28 11:27:13;;;;;;;15.43;5.67;;;24.90;91.00;;;;;;5065253;28;20445;-65
2022/10/28 11:29:40;;;;;;;17.80;6.03;;;24.90;90.40;;;;;;5065403;28;20840;-64
2022/10/28 11:32:18;;;;;;;14.90;5.60;;;24.90;91.10;;;;;;5061207;28;20662;-65
2022/10/28 11:35:03;;;;;;;19.93;5.40;;;25.10;91.30;;;;;;5060375;28;20480;-65
2022/10/28 11:37:42;;;;;;;15.50;6.20;;;25.20;92.30;;;;;;5056237;28;21482;-65
2022/10/28 11:40:21;;;;;;;20.00;5.77;;;25.30;91.60;;;;;;5068194;28;20481;-65
2022/10/28 11:42:59;;;;;;;11.77;4.70;;;25.30;91.70;;;;;;5053628;28;20461;-65
2022/10/28 11:45:31;;;;;;;13.83;3.90;;;25.60;91.80;;;;;;5054734;28;20762;-65
2022/10/28 11:48:13;;;;;;;11.50;3.50;;;25.70;90.80;;;;;;5062832;28;20445;-64
2022/10/28 11:50:51;;;;;;;24.27;5.77;;;25.70;89.00;;;;;;5070226;28;20463;-65
2022/10/28 11:53:49;;;;;;;7.50;4.07;;;25.80;88.80;;;;;;5067573;28;20485;-65
2022/10/28 11:56:28;;;;;;;9.23;4.10;;;25.80;87.40;;;;;;5058777;28;20867;-65
2022/10/28 11:59:05;;;;;;;41.37;5.27;;;25.90;89.20;;;;;;5057936;28;20941;-65
2022/10/28 12:01:43;;;;;;;10.70;4.30;;;25.80;88.70;;;;;;5069700;28;20594;-65
2022/10/28 12:04:26;;;;;;;14.97;4.00;;;25.80;89.80;;;;;;5067143;28;20453;-64
2022/10/28 12:07:19;;;;;;;11.30;4.07;;;25.60;85.00;;;;;;5068893;28;20457;-65
2022/10/28 12:10:01;;;;;;;12.50;4.60;;;25.50;87.30;;;;;;5069689;28;20453;-65
2022/10/28 12:12:35;;;;;;;4.83;3.17;;;25.40;87.40;;;;;;5069517;28;21169;-64
2022/10/28 12:15:11;;;;;;;13.03;4.63;;;25.40;90.20;;;;;;5069083;28;20457;-65
2022/10/28 12:17:41;;;;;;;9.10;4.83;;;;;;;;;;5066476;28;20477;-64
2022/10/28 12:20:16;;;;;;;22.13;5.93;;;25.50;87.80;;;;;;5069014;28;20989;-65
2022/10/28 12:22:50;;;;;;;13.30;3.73;;;25.50;89.40;;;;;;5068717;28;20478;-65
2022/10/28 12:25:22;;;;;;;17.37;4.60;;;25.80;88.80;;;;;;5068341;28;20457;-65
2022/10/28 12:27:51;;;;;;;10.00;5.83;;;25.90;87.70;;;;;;5069142;28;20449;-65
2022/10/28 12:30:21;;;;;;;11.40;4.03;;;25.90;87.00;;;;;;5072168;28;20474;-65
2022/10/28 12:32:51;;;;;;;13.93;4.80;;;25.80;87.50;;;;;;5072943;28;21001;-65
2022/10/28 12:35:22;;;;;;;10.73;4.53;;;25.90;87.10;;;;;;5071839;28;20474;-64
2022/10/28 12:37:57;;;;;;;16.00;3.90;;;25.90;86.80;;;;;;5077510;28;20452;-65
2022/10/28 12:40:28;;;;;;;14.27;4.30;;;25.90;87.70;;;;;;5078460;28;20999;-64
2022/10/28 12:43:00;;;;;;;10.30;4.37;;;25.80;86.50;;;;;;5069171;28;20470;-65
2022/10/28 12:45:30;;;;;;;16.90;4.47;;;25.80;85.80;;;;;;5073410;28;20765;-65
2022/10/28 12:48:00;;;;;;;8.93;3.90;;;25.70;86.00;;;;;;5070561;28;20452;-65
2022/10/28 12:50:32;;;;;;;14.60;4.40;;;25.80;85.60;;;;;;5072187;28;20449;-65
2022/10/28 12:53:24;;;;;;;7.67;3.87;;;26.00;85.70;;;;;;5072479;28;21059;-64
2022/10/28 12:55:56;;;;;;;12.47;4.27;;;26.00;85.40;;;;;;5072081;28;20457;-64
2022/10/28 12:58:30;;;;;;;17.53;5.73;;;26.00;84.50;;;;;;5070332;28;20448;-65
2022/10/28 13:01:01;;;;;;;23.03;4.43;;;26.00;84.30;;;;;;5072921;28;20479;-66
2022/10/28 13:03:28;;;;;;;13.73;4.67;;;26.00;87.40;;;;;;5071934;28;20484;-65
2022/10/28 13:05:58;;;;;;;18.77;5.37;;;;;;;;;;5072539;28;20475;-65